createdAt,value
2022-09-29T00:00:35.259Z,7.07
2022-09-29T00:03:01.856Z,6.35
2022-09-29T00:05:30.479Z,6.78
2022-09-29T00:07:57.026Z,7.47
2022-09-29T00:10:23.859Z,6.63
2022-09-29T00:12:50.406Z,6.40
2022-09-29T00:15:17.298Z,6.25
2022-09-29T00:18:02.706Z,6.47
2022-09-29T00:20:32.113Z,6.97
2022-09-29T00:22:58.764Z,6.80
2022-09-29T00:25:25.517Z,6.95
2022-09-29T00:27:52.019Z,6.80
2022-09-29T00:30:18.643Z,6.65
2022-09-29T00:32:45.186Z,7.30
2022-09-29T00:35:12.274Z,6.90
2022-09-29T00:37:40.065Z,7.05
2022-09-29T00:40:07.813Z,7.13
2022-09-29T00:42:34.264Z,7.25
2022-09-29T00:45:22.951Z,7.18
2022-09-29T00:47:57.017Z,6.88
2022-09-29T00:50:33.973Z,6.25
2022-09-29T00:53:04.061Z,6.65
2022-09-29T00:55:36.889Z,6.65
2022-09-29T00:58:13.104Z,6.32
2022-09-29T01:00:40.219Z,6.72
2022-09-29T01:03:17.298Z,6.25
2022-09-29T01:05:50.027Z,6.53
2022-09-29T01:08:26.834Z,7.30
2022-09-29T01:10:53.972Z,7.53
2022-09-29T01:13:22.224Z,7.30
2022-09-29T01:15:48.786Z,11.27
2022-09-29T01:18:15.466Z,7.40
2022-09-29T01:20:52.889Z,6.88
2022-09-29T01:24:13.068Z,7.68
2022-09-29T01:27:10.458Z,7.20
2022-09-29T01:29:57.985Z,7.13
2022-09-29T01:33:00.917Z,7.22
2022-09-29T01:35:37.378Z,6.57
2022-09-29T01:38:22.585Z,5.68
2022-09-29T01:41:24.598Z,6.03
2022-09-29T01:44:35.118Z,5.63
2022-09-29T01:47:10.550Z,6.93
2022-09-29T01:52:11.945Z,5.78
2022-09-29T01:54:48.500Z,6.88
2022-09-29T01:57:22.560Z,6.13
2022-09-29T01:59:55.169Z,7.28
2022-09-29T02:02:37.809Z,6.95
2022-09-29T02:05:11.651Z,7.80
2022-09-29T02:07:42.530Z,6.95
2022-09-29T02:10:33.915Z,7.15
2022-09-29T02:13:03.006Z,6.93
2022-09-29T02:15:39.118Z,7.13
2022-09-29T02:18:16.644Z,6.47
2022-09-29T02:20:43.205Z,6.90
2022-09-29T02:23:09.746Z,7.05
2022-09-29T02:25:39.143Z,7.38
2022-09-29T02:28:07.406Z,7.30
2022-09-29T02:30:35.353Z,7.25
2022-09-29T02:33:02.374Z,7.40
2022-09-29T02:35:55.574Z,7.47
2022-09-29T02:38:35.833Z,7.03
2022-09-29T02:41:15.886Z,7.13
2022-09-29T02:44:14.671Z,7.38
2022-09-29T02:46:56.121Z,6.95
2022-09-29T02:49:38.092Z,6.82
2022-09-29T02:52:26.550Z,6.68
2022-09-29T02:55:07.924Z,5.70
2022-09-29T02:57:37.408Z,5.70
2022-09-29T03:00:17.818Z,6.13
2022-09-29T03:02:44.814Z,5.75
2022-09-29T03:05:29.648Z,6.05
2022-09-29T03:07:56.097Z,6.07
2022-09-29T03:10:24.866Z,6.35
2022-09-29T03:12:53.661Z,5.50
2022-09-29T03:15:24.606Z,5.15
2022-09-29T03:17:54.511Z,5.68
2022-09-29T03:20:21.533Z,5.70
2022-09-29T03:22:48.065Z,5.95
2022-09-29T03:25:15.887Z,7.07
2022-09-29T03:27:42.375Z,7.57
2022-09-29T03:30:12.300Z,7.72
2022-09-29T03:32:38.800Z,6.97
2022-09-29T03:35:06.031Z,7.82
2022-09-29T03:37:32.521Z,7.30
2022-09-29T03:39:59.135Z,8.30
2022-09-29T03:42:26.148Z,8.43
2022-09-29T03:44:53.145Z,9.18
2022-09-29T03:47:19.768Z,8.60
2022-09-29T03:49:46.247Z,8.50
2022-09-29T03:52:12.711Z,8.40
2022-09-29T03:54:43.466Z,7.70
2022-09-29T03:57:10.060Z,7.72
2022-09-29T03:59:36.599Z,7.90
2022-09-29T04:02:03.320Z,8.60
2022-09-29T04:04:35.055Z,8.38
2022-09-29T04:07:01.539Z,9.40
2022-09-29T04:09:28.000Z,9.00
2022-09-29T04:11:54.505Z,9.65
2022-09-29T04:14:24.069Z,8.82
2022-09-29T04:16:50.643Z,10.48
2022-09-29T04:19:17.277Z,9.55
2022-09-29T04:21:43.844Z,10.35
2022-09-29T04:24:11.157Z,8.88
2022-09-29T04:26:37.668Z,9.88
2022-09-29T04:29:04.143Z,9.50
2022-09-29T04:31:30.736Z,9.10
2022-09-29T04:33:59.078Z,9.48
2022-09-29T04:36:25.633Z,9.63
2022-09-29T04:38:52.125Z,9.77
2022-09-29T04:41:18.746Z,10.27
2022-09-29T04:43:49.742Z,9.85
2022-09-29T04:46:16.407Z,9.25
2022-09-29T04:48:43.181Z,8.45
2022-09-29T04:51:10.587Z,9.02
2022-09-29T04:53:43.071Z,7.78
2022-09-29T04:56:09.680Z,7.97
2022-09-29T04:58:36.546Z,7.75
2022-09-29T05:01:13.728Z,8.18
2022-09-29T05:03:44.485Z,7.72
2022-09-29T05:06:11.265Z,8.57
2022-09-29T05:08:37.729Z,7.25
2022-09-29T05:11:06.274Z,7.30
2022-09-29T05:13:32.782Z,6.80
2022-09-29T05:15:59.504Z,7.00
2022-09-29T05:18:26.047Z,7.13
2022-09-29T05:21:15.847Z,7.50
2022-09-29T05:23:42.581Z,7.68
2022-09-29T05:26:10.334Z,6.88
2022-09-29T05:28:38.224Z,8.60
2022-09-29T05:31:07.371Z,7.93
2022-09-29T05:33:37.893Z,7.82
2022-09-29T05:36:07.214Z,7.97
2022-09-29T05:38:35.279Z,8.35
2022-09-29T05:41:06.926Z,8.93
2022-09-29T05:43:33.669Z,9.00
2022-09-29T05:46:02.231Z,8.77
2022-09-29T05:48:32.217Z,8.63
2022-09-29T05:51:00.340Z,8.13
2022-09-29T05:53:26.921Z,9.70
2022-09-29T05:55:54.018Z,9.23
2022-09-29T05:58:20.598Z,9.63
2022-09-29T06:00:47.123Z,9.18
2022-09-29T06:03:13.678Z,10.27
2022-09-29T06:05:41.041Z,9.13
2022-09-29T06:08:07.813Z,10.05
2022-09-29T06:10:34.481Z,9.90
2022-09-29T06:13:03.272Z,9.55
2022-09-29T06:15:29.965Z,10.00
2022-09-29T06:18:01.056Z,9.38
2022-09-29T06:20:27.637Z,9.88
2022-09-29T06:22:55.239Z,10.45
2022-09-29T06:25:22.534Z,10.40
2022-09-29T06:27:49.172Z,10.73
2022-09-29T06:30:15.762Z,10.52
2022-09-29T06:32:42.369Z,10.65
2022-09-29T06:35:31.671Z,11.25
2022-09-29T06:37:58.678Z,10.73
2022-09-29T06:40:27.403Z,10.60
2022-09-29T06:42:54.609Z,11.73
2022-09-29T06:45:22.602Z,12.27
2022-09-29T06:47:49.190Z,13.20
2022-09-29T06:50:21.002Z,13.07
2022-09-29T06:53:01.784Z,13.95
2022-09-29T06:55:31.628Z,13.77
2022-09-29T06:58:03.509Z,13.50
2022-09-29T07:00:31.293Z,13.25
2022-09-29T07:02:58.328Z,14.20
2022-09-29T07:05:24.813Z,13.32
2022-09-29T07:07:53.208Z,12.68
2022-09-29T07:10:21.332Z,12.13
2022-09-29T07:12:47.813Z,13.45
2022-09-29T07:15:15.243Z,12.90
2022-09-29T07:17:41.746Z,13.32
2022-09-29T07:20:09.430Z,12.25
2022-09-29T07:22:35.950Z,12.40
2022-09-29T07:25:04.246Z,12.77
2022-09-29T07:27:30.784Z,11.93
2022-09-29T07:30:03.644Z,11.60
2022-09-29T07:32:32.687Z,12.48
2022-09-29T07:35:00.017Z,12.18
2022-09-29T07:37:30.420Z,11.57
2022-09-29T07:39:57.323Z,11.80
2022-09-29T07:42:23.898Z,12.63
2022-09-29T07:44:57.038Z,12.18
2022-09-29T07:47:23.670Z,11.95
2022-09-29T07:49:50.499Z,11.05
2022-09-29T07:52:17.041Z,11.48
2022-09-29T07:54:44.773Z,11.50
2022-09-29T07:57:11.583Z,11.73
2022-09-29T07:59:40.908Z,11.88
2022-09-29T08:02:14.072Z,11.43
2022-09-29T08:04:43.901Z,11.85
2022-09-29T08:07:10.827Z,12.38
2022-09-29T08:09:41.255Z,12.07
2022-09-29T08:12:08.709Z,11.40
2022-09-29T08:14:43.302Z,10.30
2022-09-29T08:19:37.086Z,11.13
2022-09-29T08:22:03.592Z,11.82
2022-09-29T08:24:31.449Z,10.93
2022-09-29T08:27:07.120Z,11.45
2022-09-29T08:29:45.589Z,11.02
2022-09-29T08:32:13.077Z,10.98
2022-09-29T08:34:40.688Z,10.90
2022-09-29T08:37:07.169Z,10.95
2022-09-29T08:39:35.669Z,11.18
2022-09-29T08:42:20.956Z,11.23
2022-09-29T08:45:08.956Z,11.10
2022-09-29T08:47:50.930Z,11.13
2022-09-29T08:50:29.566Z,10.85
2022-09-29T08:53:01.053Z,10.65
2022-09-29T08:55:43.291Z,10.70
2022-09-29T08:58:14.328Z,10.27
2022-09-29T09:00:48.575Z,10.25
2022-09-29T09:04:00.070Z,10.35
2022-09-29T09:06:29.578Z,10.38
2022-09-29T09:09:23.421Z,11.93
2022-09-29T09:12:04.863Z,10.48
2022-09-29T09:14:58.625Z,8.93
2022-09-29T09:17:55.969Z,10.15
2022-09-29T09:20:35.156Z,9.43
2022-09-29T09:23:27.429Z,9.15
2022-09-29T09:26:01.168Z,9.10
2022-09-29T09:28:34.810Z,10.23
2022-09-29T09:31:21.590Z,9.38
2022-09-29T09:34:05.907Z,9.18
2022-09-29T09:36:34.590Z,9.43
2022-09-29T09:39:16.540Z,10.00
2022-09-29T09:41:47.946Z,10.30
2022-09-29T09:44:34.789Z,9.20
2022-09-29T09:47:19.295Z,9.93
2022-09-29T09:49:52.188Z,10.27
2022-09-29T09:52:27.462Z,10.18
2022-09-29T09:57:40.078Z,7.60
2022-09-29T10:00:15.575Z,7.80
2022-09-29T10:02:56.680Z,7.43
2022-09-29T10:05:38.928Z,6.80
2022-09-29T10:08:25.686Z,7.35
2022-09-29T10:10:58.610Z,6.22
2022-09-29T10:13:31.257Z,6.90
2022-09-29T10:16:28.891Z,6.57
2022-09-29T10:18:55.573Z,7.55
2022-09-29T10:21:29.583Z,7.07
2022-09-29T10:24:00.826Z,7.18
2022-09-29T10:26:34.915Z,6.65
2022-09-29T10:29:22.464Z,6.20
2022-09-29T10:32:36.521Z,6.65
2022-09-29T10:35:33.246Z,5.97
2022-09-29T10:38:02.266Z,6.70
2022-09-29T10:40:29.393Z,5.95
2022-09-29T10:42:57.278Z,5.40
2022-09-29T10:45:29.963Z,5.30
2022-09-29T10:48:00.331Z,5.50
2022-09-29T10:50:47.807Z,5.10
2022-09-29T10:53:51.679Z,4.75
2022-09-29T10:56:22.383Z,5.07
2022-09-29T10:59:00.432Z,4.65
2022-09-29T11:01:35.085Z,5.47
2022-09-29T11:04:13.940Z,5.32
2022-09-29T11:06:44.150Z,5.55
2022-09-29T11:09:14.286Z,5.30
2022-09-29T11:11:59.419Z,5.07
2022-09-29T11:14:41.737Z,4.82
2022-09-29T11:17:23.923Z,4.60
2022-09-29T11:19:52.714Z,4.75
2022-09-29T11:22:21.952Z,4.30
2022-09-29T11:25:22.469Z,4.03
2022-09-29T11:28:11.669Z,4.00
2022-09-29T11:31:09.225Z,4.10
2022-09-29T11:33:37.987Z,4.22
2022-09-29T11:36:23.533Z,4.13
2022-09-29T11:38:56.192Z,4.00
2022-09-29T11:41:50.990Z,4.53
2022-09-29T11:44:50.076Z,4.55
2022-09-29T11:47:53.656Z,4.20
2022-09-29T11:50:23.518Z,4.20
2022-09-29T11:53:08.276Z,4.45
2022-09-29T11:56:11.575Z,4.37
2022-09-29T11:59:10.187Z,4.35
2022-09-29T12:02:06.264Z,3.88
2022-09-29T12:05:02.664Z,3.70
2022-09-29T12:07:47.262Z,3.60
2022-09-29T12:10:33.149Z,3.75
2022-09-29T12:13:27.411Z,3.28
2022-09-29T12:16:03.996Z,3.30
2022-09-29T12:18:39.520Z,2.60
2022-09-29T12:21:12.993Z,3.40
2022-09-29T12:23:46.692Z,3.30
2022-09-29T12:26:23.378Z,2.50
2022-09-29T12:29:00.063Z,2.63
2022-09-29T12:31:31.797Z,3.08
2022-09-29T12:34:17.436Z,2.65
2022-09-29T12:39:31.506Z,2.47
2022-09-29T12:42:11.260Z,3.05
2022-09-29T12:45:00.691Z,3.35
2022-09-29T12:47:48.627Z,2.05
2022-09-29T12:50:38.857Z,2.17
2022-09-29T12:53:18.010Z,2.10
2022-09-29T12:55:48.008Z,2.03
2022-09-29T12:58:24.169Z,2.20
2022-09-29T13:01:03.307Z,2.42
2022-09-29T13:04:04.923Z,2.00
2022-09-29T13:07:07.450Z,2.10
2022-09-29T13:09:42.149Z,1.92
2022-09-29T13:12:39.422Z,2.42
2022-09-29T13:15:34.114Z,2.35
2022-09-29T13:18:26.354Z,2.47
2022-09-29T13:21:04.948Z,2.65
2022-09-29T13:24:00.665Z,1.92
2022-09-29T13:27:02.692Z,2.08
2022-09-29T13:29:31.539Z,2.30
2022-09-29T13:31:59.109Z,2.47
2022-09-29T13:34:35.031Z,2.38
2022-09-29T13:37:21.853Z,2.72
2022-09-29T13:40:03.703Z,2.47
2022-09-29T13:42:40.693Z,2.70
2022-09-29T13:45:26.825Z,2.60
2022-09-29T13:48:00.017Z,2.47
2022-09-29T13:50:44.640Z,2.47
2022-09-29T13:53:25.503Z,2.42
2022-09-29T13:56:08.758Z,2.80
2022-09-29T13:58:41.717Z,2.47
2022-09-29T14:01:10.680Z,3.25
2022-09-29T14:03:44.299Z,2.50
2022-09-29T14:06:39.779Z,2.80
2022-09-29T14:09:33.380Z,2.67
2022-09-29T14:12:16.796Z,2.70
2022-09-29T14:14:58.868Z,2.85
2022-09-29T14:17:37.247Z,2.72
2022-09-29T14:20:19.976Z,2.60
2022-09-29T14:22:46.429Z,3.17
2022-09-29T14:25:15.019Z,2.88
2022-09-29T14:27:58.623Z,2.92
2022-09-29T14:30:43.816Z,2.85
2022-09-29T14:33:10.285Z,2.15
2022-09-29T14:35:39.827Z,2.03
2022-09-29T14:38:26.462Z,2.17
2022-09-29T14:41:07.936Z,2.50
2022-09-29T14:43:43.120Z,3.03
2022-09-29T14:49:47.421Z,2.33
2022-09-29T14:52:32.342Z,2.90
2022-09-29T14:55:22.516Z,2.75
2022-09-29T14:57:54.796Z,3.08
2022-09-29T15:00:27.385Z,2.70
2022-09-29T15:03:00.226Z,2.42
2022-09-29T15:05:44.719Z,2.33
2022-09-29T15:08:28.296Z,2.50
2022-09-29T15:10:56.158Z,2.80
2022-09-29T15:13:30.198Z,2.50
2022-09-29T15:16:06.502Z,2.53
2022-09-29T15:18:40.211Z,2.70
2022-09-29T15:21:15.282Z,2.40
2022-09-29T15:24:14.595Z,2.80
2022-09-29T15:26:42.989Z,3.08
2022-09-29T15:29:17.291Z,2.90
2022-09-29T15:31:47.903Z,2.78
2022-09-29T15:34:20.071Z,3.15
2022-09-29T15:36:55.398Z,3.20
2022-09-29T15:39:30.936Z,3.05
2022-09-29T15:42:23.670Z,3.45
2022-09-29T15:45:00.148Z,3.85
2022-09-29T15:47:39.388Z,3.47
2022-09-29T15:50:21.047Z,4.55
2022-09-29T15:52:48.403Z,3.65
2022-09-29T15:55:18.183Z,3.30
2022-09-29T15:57:47.963Z,3.25
2022-09-29T16:00:23.646Z,3.60
2022-09-29T16:03:04.236Z,3.45
2022-09-29T16:05:34.205Z,2.83
2022-09-29T16:08:04.263Z,3.42
2022-09-29T16:10:40.758Z,3.70
2022-09-29T16:13:15.565Z,3.92
2022-09-29T16:15:46.188Z,3.58
2022-09-29T16:18:19.994Z,4.10
2022-09-29T16:20:46.944Z,4.35
2022-09-29T16:23:25.312Z,4.20
2022-09-29T16:26:14.245Z,4.85
2022-09-29T16:29:01.044Z,4.90
2022-09-29T16:31:30.056Z,3.88
2022-09-29T16:34:01.012Z,4.80
2022-09-29T16:36:35.987Z,4.90
2022-09-29T16:39:05.252Z,4.57
2022-09-29T16:41:41.068Z,4.35
2022-09-29T16:44:24.489Z,4.93
2022-09-29T16:46:55.931Z,5.57
2022-09-29T16:49:31.753Z,4.63
2022-09-29T16:52:15.786Z,5.30
2022-09-29T16:54:44.704Z,5.13
2022-09-29T16:57:27.551Z,5.55
2022-09-29T17:00:11.714Z,5.05
2022-09-29T17:02:38.261Z,5.40
2022-09-29T17:05:05.159Z,5.90
2022-09-29T17:07:32.156Z,6.07
2022-09-29T17:10:00.902Z,6.60
2022-09-29T17:12:29.584Z,7.35
2022-09-29T17:15:01.537Z,6.95
2022-09-29T17:17:28.573Z,7.10
2022-09-29T17:19:56.694Z,7.05
2022-09-29T17:22:41.356Z,7.40
2022-09-29T17:25:13.475Z,6.72
2022-09-29T17:27:58.874Z,6.80
2022-09-29T17:30:26.137Z,7.30
2022-09-29T17:32:54.769Z,7.20
2022-09-29T17:35:27.866Z,7.13
2022-09-29T17:37:56.170Z,6.88
2022-09-29T17:40:28.454Z,6.78
2022-09-29T17:42:58.969Z,6.85
2022-09-29T17:45:25.964Z,6.13
2022-09-29T17:47:53.302Z,6.53
2022-09-29T17:50:22.517Z,6.25
2022-09-29T17:52:49.071Z,6.40
2022-09-29T17:55:15.775Z,6.38
2022-09-29T17:57:43.429Z,5.43
2022-09-29T18:00:19.326Z,6.35
2022-09-29T18:02:46.076Z,5.45
2022-09-29T18:05:13.991Z,5.97
2022-09-29T18:07:41.638Z,5.80
2022-09-29T18:10:28.774Z,6.18
2022-09-29T18:12:56.297Z,6.70
2022-09-29T18:15:27.521Z,6.60
2022-09-29T18:17:59.178Z,6.55
2022-09-29T18:20:29.691Z,7.43
2022-09-29T18:22:59.238Z,6.80
2022-09-29T18:25:33.634Z,7.00
2022-09-29T18:28:01.805Z,6.97
2022-09-29T18:30:40.287Z,7.30
2022-09-29T18:33:14.909Z,7.63
2022-09-29T18:35:44.536Z,6.85
2022-09-29T18:38:11.675Z,6.97
2022-09-29T18:40:39.179Z,8.15
2022-09-29T18:43:07.310Z,8.27
2022-09-29T18:45:37.437Z,7.47
2022-09-29T18:48:06.383Z,7.00
2022-09-29T18:50:39.244Z,7.72
2022-09-29T18:53:06.231Z,7.10
2022-09-29T18:55:32.787Z,7.60
2022-09-29T18:58:00.133Z,8.02
2022-09-29T19:00:32.818Z,8.07
2022-09-29T19:03:01.097Z,8.45
2022-09-29T19:05:30.967Z,8.07
2022-09-29T19:08:00.635Z,7.93
2022-09-29T19:10:32.516Z,8.60
2022-09-29T19:13:08.361Z,8.82
2022-09-29T19:15:40.617Z,7.93
2022-09-29T19:18:08.281Z,7.78
2022-09-29T19:20:35.591Z,8.20
2022-09-29T19:23:03.077Z,7.97
2022-09-29T19:25:39.243Z,8.70
2022-09-29T19:28:06.160Z,7.70
2022-09-29T19:30:37.171Z,6.88
2022-09-29T19:33:05.033Z,7.05
2022-09-29T19:35:31.824Z,6.95
2022-09-29T19:37:59.379Z,6.60
2022-09-29T19:40:29.713Z,7.05
2022-09-29T19:42:58.445Z,7.53
2022-09-29T19:45:26.566Z,6.35
2022-09-29T19:47:57.064Z,7.93
2022-09-29T19:50:43.056Z,8.55
2022-09-29T19:55:42.103Z,8.90
2022-09-29T19:58:08.697Z,8.05
2022-09-29T20:00:35.687Z,8.80
2022-09-29T20:03:02.476Z,7.68
2022-09-29T20:05:29.467Z,8.00
2022-09-29T20:07:56.054Z,7.50
2022-09-29T20:10:24.205Z,7.70
2022-09-29T20:12:50.741Z,7.55
2022-09-29T20:15:17.404Z,8.10
2022-09-29T20:17:44.626Z,7.35
2022-09-29T20:20:11.881Z,8.00
2022-09-29T20:22:38.926Z,7.55
2022-09-29T20:25:07.830Z,7.85
2022-09-29T20:27:35.719Z,6.60
2022-09-29T20:30:05.231Z,6.82
2022-09-29T20:32:33.540Z,6.75
2022-09-29T20:35:01.761Z,6.28
2022-09-29T20:37:29.089Z,6.40
2022-09-29T20:39:56.124Z,7.05
2022-09-29T20:42:22.745Z,7.03
2022-09-29T20:44:55.096Z,6.88
2022-09-29T20:47:25.369Z,7.20
2022-09-29T20:49:54.821Z,6.80
2022-09-29T20:52:21.573Z,6.43
2022-09-29T20:54:48.205Z,6.82
2022-09-29T20:57:18.363Z,7.15
2022-09-29T20:59:45.098Z,7.10
2022-09-29T21:02:13.604Z,7.28
2022-09-29T21:04:42.334Z,7.30
2022-09-29T21:07:28.842Z,7.55
2022-09-29T21:09:55.419Z,6.63
2022-09-29T21:12:21.873Z,7.15
2022-09-29T21:14:48.583Z,7.82
2022-09-29T21:17:15.071Z,7.05
2022-09-29T21:19:41.630Z,7.57
2022-09-29T21:22:08.965Z,8.15
2022-09-29T21:24:41.381Z,7.53
2022-09-29T21:27:09.213Z,7.97
2022-09-29T21:29:35.844Z,7.68
2022-09-29T21:32:02.386Z,8.07
2022-09-29T21:34:33.433Z,8.65
2022-09-29T21:36:59.921Z,8.40
2022-09-29T21:39:26.451Z,9.10
2022-09-29T21:41:53.000Z,9.15
2022-09-29T21:44:23.951Z,9.43
2022-09-29T21:46:51.328Z,9.48
2022-09-29T21:49:19.287Z,8.77
2022-09-29T21:51:48.343Z,8.68
2022-09-29T21:54:25.479Z,8.85
2022-09-29T21:56:53.073Z,8.55
2022-09-29T21:59:20.879Z,8.40
2022-09-29T22:01:47.583Z,8.55
2022-09-29T22:04:17.067Z,8.02
2022-09-29T22:06:44.968Z,8.05
2022-09-29T22:09:16.915Z,7.95
2022-09-29T22:11:44.162Z,7.80
2022-09-29T22:14:13.962Z,7.15
2022-09-29T22:16:40.707Z,9.32
2022-09-29T22:19:24.692Z,8.52
2022-09-29T22:21:53.220Z,8.82
2022-09-29T22:24:23.744Z,8.80
2022-09-29T22:26:50.309Z,8.50
2022-09-29T22:29:17.032Z,8.88
2022-09-29T22:31:43.670Z,9.05
2022-09-29T22:34:11.164Z,8.40
2022-09-29T22:36:37.739Z,8.18
2022-09-29T22:39:06.364Z,7.30
2022-09-29T22:41:33.351Z,6.75
2022-09-29T22:44:04.608Z,5.38
2022-09-29T22:46:32.267Z,5.60
2022-09-29T22:48:59.751Z,5.40
2022-09-29T22:51:26.684Z,4.95
2022-09-29T22:53:56.370Z,4.50
2022-09-29T22:56:30.274Z,4.93
2022-09-29T22:59:02.987Z,5.88
2022-09-29T23:01:30.082Z,6.40
2022-09-29T23:03:58.426Z,7.43
2022-09-29T23:06:25.129Z,7.82
2022-09-29T23:08:53.504Z,5.50
2022-09-29T23:11:20.188Z,5.88
2022-09-29T23:13:48.952Z,6.50
2022-09-29T23:16:16.739Z,5.70
2022-09-29T23:18:45.730Z,6.47
2022-09-29T23:21:14.796Z,5.90
2022-09-29T23:23:43.298Z,6.10
2022-09-29T23:26:09.786Z,6.07
2022-09-29T23:28:36.291Z,5.88
2022-09-29T23:31:07.626Z,5.43
2022-09-29T23:33:34.252Z,5.25
2022-09-29T23:36:09.405Z,4.97
2022-09-29T23:38:56.054Z,4.72
2022-09-29T23:41:24.166Z,5.60
2022-09-29T23:43:56.146Z,5.70
2022-09-29T23:46:31.566Z,6.47
2022-09-29T23:49:02.746Z,5.13
2022-09-29T23:51:33.250Z,5.78
2022-09-29T23:54:00.815Z,6.20
2022-09-29T23:56:27.965Z,7.43
2022-09-29T23:58:55.498Z,6.20
